Time;durP1;ratioP1;P1;durP2;ratioP2;P2;SDS_P1;SDS_P2;PMS_P1;PMS_P2;Temp;Humidity;BMP_temperature;BMP_pressure;BME280_temperature;BME280_humidity;BME280_pressure;Samples;Min_cycle;Max_cycle;Signal;HPM_P1;HPM_P2
2021/11/27 00:01:17;;;;;;;9.10;5.93;;;;;;;;;;5049481;28;20186;-64
2021/11/27 00:03:45;;;;;;;10.65;5.50;;;;;;;;;;5050247;28;20186;-64
2021/11/27 00:06:13;;;;;;;10.30;7.22;;;;;;;;;;5050516;28;20191;-64
2021/11/27 00:08:41;;;;;;;7.70;5.50;;;;;;;;;;5050472;28;20221;-66
2021/11/27 00:11:08;;;;;;;7.07;5.25;;;;;;;;;;5052129;28;20309;-65
2021/11/27 00:13:35;;;;;;;9.18;6.47;;;;;;;;;;5051570;28;20459;-64
2021/11/27 00:16:03;;;;;;;8.90;6.55;;;;;;;;;;5052865;28;20218;-65
2021/11/27 00:18:32;;;;;;;10.70;5.63;;;;;;;;;;5052049;28;20236;-65
2021/11/27 00:21:01;;;;;;;8.23;5.75;;;;;;;;;;5052395;28;20227;-65
2021/11/27 00:23:31;;;;;;;7.32;5.00;;;;;;;;;;5051379;28;20720;-65
2021/11/27 00:25:58;;;;;;;9.40;5.90;;;;;;;;;;5052390;28;20281;-65
2021/11/27 00:28:26;;;;;;;9.15;6.28;;;;;;;;;;5052315;28;20377;-64
2021/11/27 00:30:55;;;;;;;7.78;6.15;;;;;;;;;;5052462;28;20697;-65
2021/11/27 00:33:22;;;;;;;7.30;5.03;;;;;;;;;;5052022;28;20639;-64
2021/11/27 00:35:49;;;;;;;8.55;6.07;;;;;;;;;;5052049;28;20522;-65
2021/11/27 00:38:17;;;;;;;6.75;5.20;;;;;;;;;;5051417;28;20193;-65
2021/11/27 00:40:46;;;;;;;10.98;6.63;;;;;;;;;;5051343;28;20187;-64
2021/11/27 00:43:14;;;;;;;7.22;5.13;;;;;;;;;;5051797;28;20248;-65
2021/11/27 00:45:42;;;;;;;8.68;5.72;;;;;;;;;;5052486;28;20222;-65
2021/11/27 00:48:13;;;;;;;8.23;5.82;;;;;;;;;;5052023;28;20570;-64
2021/11/27 00:50:42;;;;;;;8.18;6.22;;;;;;;;;;5052220;28;20708;-64
2021/11/27 00:53:10;;;;;;;13.35;6.25;;;;;;;;;;5051949;28;20214;-65
2021/11/27 00:55:37;;;;;;;6.72;5.30;;;;;;;;;;5051397;28;20305;-65
2021/11/27 00:58:06;;;;;;;7.00;5.13;;;;;;;;;;5050526;28;20230;-65
2021/11/27 01:00:35;;;;;;;9.80;5.68;;;;;;;;;;5052396;28;20211;-65
2021/11/27 01:03:04;;;;;;;8.27;5.97;;;;;;;;;;5051894;28;20183;-65
2021/11/27 01:05:32;;;;;;;8.32;6.00;;;;;;;;;;5052207;28;20245;-65
2021/11/27 01:08:00;;;;;;;8.65;5.60;;;;;;;;;;5052136;28;20225;-65
2021/11/27 01:10:30;;;;;;;7.32;5.55;;;;;;;;;;5051278;28;20567;-65
2021/11/27 01:12:58;;;;;;;11.10;6.05;;;;;;;;;;5050929;28;20226;-66
2021/11/27 01:15:28;;;;;;;7.35;4.50;;;;;;;;;;5051307;28;20211;-64
2021/11/27 01:17:55;;;;;;;6.32;4.75;;;;;;;;;;5052389;28;20226;-64
2021/11/27 01:20:24;;;;;;;7.18;4.32;;;;;;;;;;5051597;28;20179;-65
2021/11/27 01:22:52;;;;;;;6.78;4.72;;;;;;;;;;5051879;28;20223;-64
2021/11/27 01:25:20;;;;;;;8.98;5.90;;;;;;;;;;5051851;28;20233;-65
2021/11/27 01:27:47;;;;;;;11.82;6.15;;;;;;;;;;5052290;28;20542;-65
2021/11/27 01:30:16;;;;;;;7.45;4.78;;;;;;;;;;5051548;28;20198;-66
2021/11/27 01:32:45;;;;;;;7.80;4.72;;;;;;;;;;5052293;28;20195;-65
2021/11/27 01:35:13;;;;;;;8.10;5.80;;;;;;;;;;5052085;28;20260;-66
2021/11/27 01:37:40;;;;;;;7.90;4.72;;;;;;;;;;5051961;28;20245;-65
2021/11/27 01:40:09;;;;;;;6.40;4.93;;;;;;;;;;5051427;28;20300;-64
2021/11/27 01:42:36;;;;;;;10.93;6.50;;;;;;;;;;5051097;28;20647;-66
2021/11/27 01:45:05;;;;;;;6.97;5.00;;;;;;;;;;5052013;28;20314;-65
2021/11/27 01:47:34;;;;;;;6.75;4.60;;;;;;;;;;5051397;28;20282;-64
2021/11/27 01:50:04;;;;;;;6.65;5.22;;;;;;;;;;5051904;28;20278;-65
2021/11/27 01:52:31;;;;;;;11.25;5.28;;;;;;;;;;5051886;28;20222;-65
2021/11/27 01:54:59;;;;;;;7.93;5.25;;;;;;;;;;5055044;28;20531;-64
2021/11/27 01:57:26;;;;;;;7.75;4.88;;;;;;;;;;5055267;28;20552;-64
2021/11/27 01:59:53;;;;;;;6.60;4.90;;;;;;;;;;5054238;28;20258;-65
2021/11/27 02:02:21;;;;;;;7.35;4.68;;;;;;;;;;5054528;28;20218;-64
2021/11/27 02:04:48;;;;;;;7.72;5.25;;;;;;;;;;5054992;28;20579;-65
2021/11/27 02:07:17;;;;;;;9.65;5.72;;;;;;;;;;5054640;28;20286;-64
2021/11/27 02:09:45;;;;;;;6.95;4.97;;;;;;;;;;5054410;28;20230;-65
2021/11/27 02:12:13;;;;;;;6.43;4.45;;;;;;;;;;5053610;28;20782;-64
2021/11/27 02:14:41;;;;;;;5.07;3.92;;;;;;;;;;5054452;28;20759;-65
2021/11/27 02:17:10;;;;;;;6.40;4.65;;;;;;;;;;5054654;28;20229;-64
2021/11/27 02:19:37;;;;;;;7.25;4.28;;;;;;;;;;5054733;28;20657;-64
2021/11/27 02:22:06;;;;;;;5.93;4.10;;;;;;;;;;5053688;28;20219;-65
2021/11/27 02:24:37;;;;;;;6.88;4.85;;;;;;;;;;5054778;28;20198;-65
2021/11/27 02:27:04;;;;;;;7.85;4.80;;;;;;;;;;5054063;28;20194;-65
2021/11/27 02:29:33;;;;;;;8.07;5.40;;;;;;;;;;5054195;28;20676;-65
2021/11/27 02:32:01;;;;;;;5.75;3.75;;;;;;;;;;5053975;28;20215;-65
2021/11/27 02:34:28;;;;;;;5.32;4.43;;;;;;;;;;5054965;28;20233;-64
2021/11/27 02:36:57;;;;;;;6.45;4.35;;;;;;;;;;5054109;28;20198;-64
2021/11/27 02:39:26;;;;;;;7.70;5.32;;;;;;;;;;5054417;28;20187;-65
2021/11/27 02:41:54;;;;;;;5.82;4.65;;;;;;;;;;5053576;28;20241;-64
2021/11/27 02:44:21;;;;;;;8.15;5.68;;;;;;;;;;5053707;28;20598;-64
2021/11/27 02:46:49;;;;;;;6.68;4.55;;;;;;;;;;5054271;28;20229;-65
2021/11/27 02:49:16;;;;;;;7.63;5.82;;;;;;;;;;5053391;28;20286;-64
2021/11/27 02:51:52;;;;;;;6.53;4.28;;;;;;;;;;5053619;28;20743;-66
2021/11/27 02:54:20;;;;;;;9.45;6.00;;;;;;;;;;5053553;28;20194;-65
2021/11/27 02:56:48;;;;;;;7.55;4.95;;;;;;;;;;5054170;28;20487;-65
2021/11/27 02:59:16;;;;;;;7.00;4.85;;;;;;;;;;5053302;28;20190;-65
2021/11/27 03:01:45;;;;;;;6.32;5.07;;;;;;;;;;5053964;28;20227;-64
2021/11/27 03:04:13;;;;;;;7.78;5.18;;;;;;;;;;5052296;28;20642;-65
2021/11/27 03:06:40;;;;;;;11.80;6.45;;;;;;;;;;5054026;28;20290;-64
2021/11/27 03:09:08;;;;;;;8.73;6.25;;;;;;;;;;5053283;28;20191;-65
2021/11/27 03:11:35;;;;;;;8.90;6.68;;;;;;;;;;5052804;28;20218;-65
2021/11/27 03:14:07;;;;;;;8.32;4.97;;;;;;;;;;5053549;28;20264;-65
2021/11/27 03:16:38;;;;;;;8.27;5.22;;;;;;;;;;5053162;28;20273;-64
2021/11/27 03:19:10;;;;;;;8.07;5.40;;;;;;;;;;5053426;28;20579;-65
2021/11/27 03:21:37;;;;;;;10.60;6.00;;;;;;;;;;5051988;28;20548;-64
2021/11/27 03:24:05;;;;;;;8.25;5.18;;;;;;;;;;5052532;28;20282;-65
2021/11/27 03:26:32;;;;;;;7.60;5.40;;;;;;;;;;5050992;28;20190;-65
2021/11/27 03:29:00;;;;;;;8.88;5.30;;;;;;;;;;5052276;28;20613;-65
2021/11/27 03:31:28;;;;;;;9.75;5.63;;;;;;;;;;5052155;28;20218;-65
2021/11/27 03:33:56;;;;;;;7.32;5.40;;;;;;;;;;5052422;28;20282;-65
2021/11/27 03:36:23;;;;;;;8.60;5.05;;;;;;;;;;5051574;28;20646;-64
2021/11/27 03:38:56;;;;;;;9.07;6.22;;;;;;;;;;5052579;28;20692;-65
2021/11/27 03:41:23;;;;;;;7.20;5.10;;;;;;;;;;5052808;28;20209;-65
2021/11/27 03:43:51;;;;;;;7.53;5.00;;;;;;;;;;5053151;28;20278;-65
2021/11/27 03:46:18;;;;;;;7.80;5.43;;;;;;;;;;5052653;28;20237;-66
2021/11/27 03:48:47;;;;;;;7.82;5.70;;;;;;;;;;5052218;28;20277;-64
2021/11/27 03:51:16;;;;;;;8.15;5.60;;;;;;;;;;5052638;28;20226;-66
2021/11/27 03:53:44;;;;;;;7.00;4.72;;;;;;;;;;5052915;28;20199;-65
2021/11/27 03:56:12;;;;;;;9.25;5.72;;;;;;;;;;5052438;28;20668;-65
2021/11/27 03:58:39;;;;;;;6.82;5.28;;;;;;;;;;5052830;28;20191;-64
2021/11/27 04:01:09;;;;;;;6.50;4.80;;;;;;;;;;5052096;28;20226;-65
2021/11/27 04:03:36;;;;;;;6.20;4.32;;;;;;;;;;5053047;28;20241;-64
2021/11/27 04:06:05;;;;;;;5.80;4.32;;;;;;;;;;5051929;28;20187;-64
2021/11/27 04:08:33;;;;;;;11.93;5.30;;;;;;;;;;5051609;28;20340;-64
2021/11/27 04:11:00;;;;;;;5.85;4.13;;;;;;;;;;5051360;28;20249;-64
2021/11/27 04:13:27;;;;;;;9.18;5.40;;;;;;;;;;5051255;28;20262;-64
2021/11/27 04:15:55;;;;;;;7.25;5.30;;;;;;;;;;5050872;28;20183;-64
2021/11/27 04:18:22;;;;;;;7.43;5.65;;;;;;;;;;5052686;28;20320;-65
2021/11/27 04:20:49;;;;;;;8.10;5.80;;;;;;;;;;5052318;28;20302;-64
2021/11/27 04:23:19;;;;;;;8.63;5.30;;;;;;;;;;5052666;28;20202;-65
2021/11/27 04:25:46;;;;;;;8.23;5.25;;;;;;;;;;5051233;28;20191;-64
2021/11/27 04:28:16;;;;;;;8.32;5.65;;;;;;;;;;5052778;28;20297;-65
2021/11/27 04:30:43;;;;;;;8.50;5.57;;;;;;;;;;5051691;28;20214;-65
2021/11/27 04:33:10;;;;;;;8.30;5.00;;;;;;;;;;5051746;28;20227;-65
2021/11/27 04:35:38;;;;;;;7.80;6.95;;;;;;;;;;5050502;28;20187;-64
2021/11/27 04:38:06;;;;;;;7.80;5.25;;;;;;;;;;5051249;28;20278;-65
2021/11/27 04:40:35;;;;;;;7.35;4.93;;;;;;;;;;5050646;28;20195;-65
2021/11/27 04:43:02;;;;;;;7.53;4.80;;;;;;;;;;5052478;28;20191;-65
2021/11/27 04:45:29;;;;;;;8.45;5.57;;;;;;;;;;5051965;28;20191;-65
2021/11/27 04:47:57;;;;;;;8.07;5.05;;;;;;;;;;5051996;28;20195;-65
2021/11/27 04:50:24;;;;;;;7.05;5.55;;;;;;;;;;5051732;28;20274;-64
2021/11/27 04:52:51;;;;;;;8.55;5.07;;;;;;;;;;5051670;28;20254;-65
2021/11/27 04:55:19;;;;;;;6.45;5.10;;;;;;;;;;5051190;28;20187;-65
2021/11/27 04:57:48;;;;;;;6.80;4.50;;;;;;;;;;5052287;28;20241;-64
2021/11/27 05:00:17;;;;;;;6.68;5.10;;;;;;;;;;5051491;28;20191;-64
2021/11/27 05:02:45;;;;;;;8.57;3.97;;;;;;;;;;5052193;28;20230;-64
2021/11/27 05:05:12;;;;;;;8.27;5.68;;;;;;;;;;5052325;28;20194;-64
2021/11/27 05:07:40;;;;;;;6.75;5.40;;;;;;;;;;5051983;28;20195;-64
2021/11/27 05:10:07;;;;;;;6.53;5.07;;;;;;;;;;5051841;28;20597;-65
2021/11/27 05:12:35;;;;;;;8.18;5.55;;;;;;;;;;5051197;28;20261;-64
2021/11/27 05:15:03;;;;;;;6.40;5.28;;;;;;;;;;5051733;28;20245;-65
2021/11/27 05:17:31;;;;;;;7.30;5.78;;;;;;;;;;5052220;28;20191;-65
2021/11/27 05:19:58;;;;;;;8.82;5.55;;;;;;;;;;5052129;28;20274;-66
2021/11/27 05:22:26;;;;;;;9.15;6.22;;;;;;;;;;5052138;28;20237;-65
2021/11/27 05:24:53;;;;;;;9.45;6.82;;;;;;;;;;5051702;28;20191;-64
2021/11/27 05:27:21;;;;;;;9.38;7.00;;;;;;;;;;5053972;28;20218;-64
2021/11/27 05:29:51;;;;;;;12.73;6.75;;;;;;;;;;5054679;28;20658;-63
2021/11/27 05:32:23;;;;;;;11.27;7.13;;;;;;;;;;5054334;28;20222;-65
2021/11/27 05:34:51;;;;;;;6.15;4.47;;;;;;;;;;5055098;28;20237;-65
2021/11/27 05:37:18;;;;;;;7.65;5.57;;;;;;;;;;5055569;28;20213;-64
2021/11/27 05:39:46;;;;;;;5.90;4.70;;;;;;;;;;5054923;28;20277;-65
2021/11/27 05:42:16;;;;;;;5.22;4.00;;;;;;;;;;5055511;28;20202;-65
2021/11/27 05:44:43;;;;;;;6.55;4.22;;;;;;;;;;5054782;28;20277;-65
2021/11/27 05:47:11;;;;;;;7.53;5.80;;;;;;;;;;5054232;28;20340;-65
2021/11/27 05:49:40;;;;;;;5.63;4.05;;;;;;;;;;5054093;28;20236;-65
2021/11/27 05:52:10;;;;;;;7.03;5.05;;;;;;;;;;5055326;28;20746;-65
2021/11/27 05:54:38;;;;;;;5.10;3.95;;;;;;;;;;5054163;28;20238;-66
2021/11/27 05:57:10;;;;;;;7.38;4.88;;;;;;;;;;5055153;28;20214;-65
2021/11/27 05:59:40;;;;;;;7.05;4.88;;;;;;;;;;5054826;28;20191;-65
2021/11/27 06:02:07;;;;;;;6.95;4.10;;;;;;;;;;5054423;28;20183;-65
2021/11/27 06:04:35;;;;;;;7.20;5.70;;;;;;;;;;5055431;28;20213;-64
2021/11/27 06:07:04;;;;;;;7.22;5.00;;;;;;;;;;5054816;28;20210;-64
2021/11/27 06:09:31;;;;;;;5.45;3.55;;;;;;;;;;5055156;28;20187;-65
2021/11/27 06:12:00;;;;;;;5.78;3.75;;;;;;;;;;5054406;28;20249;-65
2021/11/27 06:14:27;;;;;;;5.38;3.92;;;;;;;;;;5055063;28;20568;-65
2021/11/27 06:16:57;;;;;;;8.05;4.65;;;;;;;;;;5052792;28;20761;-64
2021/11/27 06:19:24;;;;;;;6.70;4.20;;;;;;;;;;5055391;28;20237;-65
2021/11/27 06:21:51;;;;;;;6.85;4.32;;;;;;;;;;5053344;28;20218;-65
2021/11/27 06:24:23;;;;;;;5.78;4.50;;;;;;;;;;5053951;28;20586;-65
2021/11/27 06:26:56;;;;;;;6.13;4.35;;;;;;;;;;5054416;28;20194;-64
2021/11/27 06:29:23;;;;;;;8.90;4.82;;;;;;;;;;5053521;28;20191;-64
2021/11/27 06:31:52;;;;;;;6.78;4.63;;;;;;;;;;5053056;28;20179;-64
2021/11/27 06:34:20;;;;;;;8.48;5.43;;;;;;;;;;5053938;28;20199;-66
2021/11/27 06:36:47;;;;;;;7.55;4.60;;;;;;;;;;5053943;28;20187;-65
2021/11/27 06:39:14;;;;;;;7.63;4.68;;;;;;;;;;5052045;28;20227;-65
2021/11/27 06:41:43;;;;;;;7.30;4.60;;;;;;;;;;5052424;28;20274;-65
2021/11/27 06:44:10;;;;;;;6.18;4.55;;;;;;;;;;5054516;28;20677;-65
2021/11/27 06:46:38;;;;;;;7.85;4.72;;;;;;;;;;5054451;28;20191;-64
2021/11/27 06:49:05;;;;;;;7.22;5.53;;;;;;;;;;5054253;28;20656;-64
2021/11/27 06:51:33;;;;;;;8.43;5.88;;;;;;;;;;5053417;28;20226;-64
2021/11/27 06:54:00;;;;;;;9.18;6.80;;;;;;;;;;5053245;28;20222;-66
2021/11/27 06:56:27;;;;;;;8.38;5.75;;;;;;;;;;5054313;28;20282;-63
2021/11/27 06:58:56;;;;;;;11.25;6.20;;;;;;;;;;5054439;28;20187;-65
2021/11/27 07:01:23;;;;;;;9.88;7.65;;;;;;;;;;5033920;28;20245;-64
2021/11/27 07:03:50;;;;;;;11.93;7.00;;;;;;;;;;5033870;28;20234;-64
2021/11/27 07:06:20;;;;;;;11.20;8.18;;;;;;;;;;5052110;28;20292;-65
2021/11/27 07:08:48;;;;;;;11.43;8.10;;;;;;;;;;5054545;28;20218;-67
2021/11/27 07:11:15;;;;;;;9.30;5.90;;;;;;;;;;5053168;28;20270;-65
2021/11/27 07:13:42;;;;;;;11.15;7.97;;;;;;;;;;5051652;28;20658;-66
2021/11/27 07:16:11;;;;;;;9.98;6.80;;;;;;;;;;5052132;28;20621;-65
2021/11/27 07:18:38;;;;;;;9.48;7.00;;;;;;;;;;5048312;28;20245;-65
2021/11/27 07:21:06;;;;;;;12.50;10.35;;;;;;;;;;5050254;28;20712;-65
2021/11/27 07:23:33;;;;;;;15.93;10.80;;;;;;;;;;5052655;28;20279;-65
2021/11/27 07:26:00;;;;;;;11.77;8.18;;;;;;;;;;5050720;28;20198;-65
2021/11/27 07:28:28;;;;;;;15.50;10.27;;;;;;;;;;5051240;28;20198;-65
2021/11/27 07:30:56;;;;;;;9.45;6.85;;;;;;;;;;5052396;28;20217;-64
2021/11/27 07:33:24;;;;;;;8.98;6.22;;;;;;;;;;5052218;28;20673;-68
2021/11/27 07:35:52;;;;;;;10.68;6.65;;;;;;;;;;5051605;28;20191;-65
2021/11/27 07:38:19;;;;;;;57.13;37.85;;;;;;;;;;5052487;28;20272;-64
2021/11/27 07:40:47;;;;;;;20.95;16.30;;;;;;;;;;5051406;28;20545;-65
2021/11/27 07:43:14;;;;;;;12.43;10.23;;;;;;;;;;5052028;28;20190;-65
2021/11/27 07:45:41;;;;;;;8.85;7.10;;;;;;;;;;5050237;28;20274;-64
2021/11/27 07:48:09;;;;;;;6.78;5.95;;;;;;;;;;5052116;28;20245;-65
2021/11/27 07:50:37;;;;;;;9.70;6.32;;;;;;;;;;5051311;28;20714;-65
2021/11/27 07:53:05;;;;;;;8.65;5.88;;;;;;;;;;5051735;28;20254;-66
2021/11/27 07:55:32;;;;;;;8.35;6.25;;;;;;;;;;5051731;28;20261;-64
2021/11/27 07:58:00;;;;;;;10.27;6.78;;;;;;;;;;5051807;28;20244;-67
2021/11/27 08:00:28;;;;;;;10.23;7.55;;;;;;;;;;5051834;28;20274;-64
2021/11/27 08:02:55;;;;;;;7.22;5.75;;;;;;;;;;5051712;28;20199;-64
2021/11/27 08:05:22;;;;;;;9.07;5.32;;;;;;;;;;5049828;28;20214;-64
2021/11/27 08:07:51;;;;;;;11.48;6.82;;;;;;;;;;5049705;28;20238;-65
2021/11/27 08:10:18;;;;;;;9.35;6.07;;;;;;;;;;5051776;28;20217;-65
2021/11/27 08:12:46;;;;;;;10.75;7.00;;;;;;;;;;5051207;28;20210;-66
2021/11/27 08:15:13;;;;;;;15.52;9.13;;;;;;;;;;5046618;28;20589;-64
2021/11/27 08:17:40;;;;;;;11.85;8.80;;;;;;;;;;5049719;28;20237;-65
2021/11/27 08:20:09;;;;;;;9.65;7.38;;;;;;;;;;5050429;28;20197;-65
2021/11/27 08:22:36;;;;;;;10.40;8.23;;;;;;;;;;5050665;28;20188;-65
2021/11/27 08:25:05;;;;;;;10.30;6.63;;;;;;;;;;5050638;28;20214;-65
2021/11/27 08:27:33;;;;;;;11.52;8.00;;;;;;;;;;5051484;28;20191;-65
2021/11/27 08:30:02;;;;;;;10.57;7.90;;;;;;;;;;5050886;28;20666;-64
2021/11/27 08:32:30;;;;;;;9.02;5.72;;;;;;;;;;5051299;28;20230;-65
2021/11/27 08:34:58;;;;;;;6.93;5.15;;;;;;;;;;5051736;28;20198;-65
2021/11/27 08:37:25;;;;;;;7.97;5.50;;;;;;;;;;5050395;28;20654;-64
2021/11/27 08:39:55;;;;;;;6.72;4.97;;;;;;;;;;5050857;28;20237;-65
2021/11/27 08:42:24;;;;;;;5.20;4.65;;;;;;;;;;5051429;28;20743;-64
2021/11/27 08:44:51;;;;;;;8.68;5.57;;;;;;;;;;5050841;28;20286;-64
2021/11/27 08:47:19;;;;;;;9.82;6.60;;;;;;;;;;5051028;28;20283;-65
2021/11/27 08:49:47;;;;;;;7.22;5.00;;;;;;;;;;5044961;28;20305;-64
2021/11/27 08:52:14;;;;;;;12.77;5.90;;;;;;;;;;5048700;28;20229;-65
2021/11/27 08:54:43;;;;;;;7.30;5.25;;;;;;;;;;5048922;28;20683;-66
2021/11/27 08:57:11;;;;;;;7.45;5.30;;;;;;;;;;5050556;28;20222;-65
2021/11/27 08:59:39;;;;;;;9.45;6.22;;;;;;;;;;5050739;28;20257;-65
2021/11/27 09:02:09;;;;;;;9.65;5.97;;;;;;;;;;5052583;28;20194;-65
2021/11/27 09:04:36;;;;;;;10.55;7.20;;;;;;;;;;5053743;28;20191;-65
2021/11/27 09:07:04;;;;;;;10.05;7.60;;;;;;;;;;5054381;28;20193;-65
2021/11/27 09:09:32;;;;;;;10.30;6.72;;;;;;;;;;5055102;28;20229;-65
2021/11/27 09:11:59;;;;;;;10.63;7.18;;;;;;;;;;5053820;28;20214;-66
2021/11/27 09:14:26;;;;;;;8.00;5.93;;;;;;;;;;5050272;28;20296;-65
2021/11/27 09:16:56;;;;;;;10.55;6.30;;;;;;;;;;5054117;28;20288;-64
2021/11/27 09:19:23;;;;;;;8.40;6.10;;;;;;;;;;5054985;28;20190;-65
2021/11/27 09:21:50;;;;;;;12.25;7.85;;;;;;;;;;5052422;28;20233;-65
2021/11/27 09:24:18;;;;;;;15.52;9.18;;;;;;;;;;5054895;28;20199;-65
2021/11/27 09:26:45;;;;;;;12.45;7.65;;;;;;;;;;5053860;28;20282;-65
2021/11/27 09:29:14;;;;;;;9.48;6.80;;;;;;;;;;5053302;28;20231;-65
2021/11/27 09:31:44;;;;;;;9.10;6.85;;;;;;;;;;5053421;28;20198;-65
2021/11/27 09:34:13;;;;;;;8.30;6.20;;;;;;;;;;5054784;28;20333;-65
2021/11/27 09:36:44;;;;;;;9.30;6.93;;;;;;;;;;5053480;28;20187;-65
2021/11/27 09:39:14;;;;;;;9.57;7.97;;;;;;;;;;5054487;28;20269;-65
2021/11/27 09:41:43;;;;;;;13.65;8.80;;;;;;;;;;5053031;28;20612;-64
2021/11/27 09:44:11;;;;;;;11.85;7.55;;;;;;;;;;5054184;28;20194;-65
2021/11/27 09:46:39;;;;;;;10.55;8.23;;;;;;;;;;5053153;28;20194;-66
2021/11/27 09:49:07;;;;;;;10.98;7.13;;;;;;;;;;5054515;28;20566;-65
2021/11/27 09:51:36;;;;;;;9.23;6.68;;;;;;;;;;5053766;28;20217;-65
2021/11/27 09:54:17;;;;;;;15.55;10.23;;;;;;;;;;5051924;28;20217;-66
2021/11/27 09:56:44;;;;;;;10.55;7.80;;;;;;;;;;5053842;28;20199;-65
2021/11/27 09:59:12;;;;;;;10.05;7.10;;;;;;;;;;5053565;28;20256;-65
2021/11/27 10:01:44;;;;;;;13.88;9.40;;;;;;;;;;5053684;28;20195;-65
2021/11/27 10:04:11;;;;;;;14.93;10.20;;;;;;;;;;5053422;28;20743;-66
2021/11/27 10:06:41;;;;;;;15.35;9.90;;;;;;;;;;5053557;28;20234;-65
2021/11/27 10:09:09;;;;;;;16.00;10.32;;;;;;;;;;5052658;28;20218;-65
2021/11/27 10:11:37;;;;;;;18.45;11.00;;;;;;;;;;5054021;28;20186;-66
2021/11/27 10:14:05;;;;;;;31.65;20.10;;;;;;;;;;5052929;28;20307;-65
2021/11/27 10:16:36;;;;;;;12.60;8.80;;;;;;;;;;5050784;28;20187;-65
2021/11/27 10:19:05;;;;;;;19.35;12.50;;;;;;;;;;5049105;28;20237;-66
2021/11/27 10:21:36;;;;;;;26.30;17.77;;;;;;;;;;5052259;28;20195;-65
2021/11/27 10:24:16;;;;;;;20.88;16.77;;;;;;;;;;5048124;28;20195;-66
2021/11/27 10:26:45;;;;;;;13.90;10.25;;;;;;;;;;5050798;28;20207;-65
2021/11/27 10:29:15;;;;;;;11.50;7.47;;;;;;;;;;5052994;28;20206;-65
2021/11/27 10:31:44;;;;;;;12.05;7.00;;;;;;;;;;5053032;28;20660;-65
2021/11/27 10:34:19;;;;;;;8.70;6.22;;;;;;;;;;5049562;28;20221;-65
2021/11/27 10:36:47;;;;;;;14.13;7.97;;;;;;;;;;5052707;28;20198;-65
2021/11/27 10:39:16;;;;;;;11.45;7.60;;;;;;;;;;5052437;28;20195;-64
2021/11/27 10:41:59;;;;;;;8.93;7.05;;;;;;;;;;5052198;28;20234;-65
2021/11/27 10:44:29;;;;;;;14.48;8.35;;;;;;;;;;5047261;28;20191;-68
2021/11/27 10:47:08;;;;;;;11.10;6.85;;;;;;;;;;5053040;28;20675;-66
2021/11/27 10:49:35;;;;;;;8.27;6.13;;;;;;;;;;5052147;28;20277;-69
2021/11/27 10:52:10;;;;;;;9.15;6.20;;;;;;;;;;5050376;28;20191;-65
2021/11/27 10:54:46;;;;;;;7.68;5.50;;;;;;;;;;5051951;28;20277;-66
2021/11/27 10:57:31;;;;;;;7.43;4.53;;;;;;;;;;5052585;28;20604;-69
2021/11/27 10:59:59;;;;;;;7.85;5.55;;;;;;;;;;5051540;28;20654;-66
2021/11/27 11:02:30;;;;;;;7.80;5.35;;;;;;;;;;5052719;28;20567;-65
2021/11/27 11:05:05;;;;;;;6.00;4.75;;;;;;;;;;5052070;28;20186;-65
2021/11/27 11:07:32;;;;;;;6.97;4.68;;;;;;;;;;5052039;28;20194;-66
2021/11/27 11:10:04;;;;;;;6.03;4.47;;;;;;;;;;5049751;28;20199;-65
2021/11/27 11:12:40;;;;;;;6.45;4.63;;;;;;;;;;5052264;28;20610;-66
2021/11/27 11:15:08;;;;;;;6.75;4.75;;;;;;;;;;5046906;28;20230;-66
2021/11/27 11:17:36;;;;;;;6.43;4.47;;;;;;;;;;5051988;28;20190;-66
2021/11/27 11:20:13;;;;;;;5.43;4.35;;;;;;;;;;5052138;28;20205;-65
2021/11/27 11:22:41;;;;;;;9.23;6.22;;;;;;;;;;5048868;28;20190;-66
2021/11/27 11:25:11;;;;;;;14.18;8.20;;;;;;;;;;5051128;28;20187;-66
2021/11/27 11:27:41;;;;;;;8.95;6.30;;;;;;;;;;5051519;28;20197;-66
2021/11/27 11:30:15;;;;;;;7.93;6.18;;;;;;;;;;5051834;28;20195;-65
2021/11/27 11:32:43;;;;;;;11.15;7.10;;;;;;;;;;5051455;28;20522;-67
2021/11/27 11:35:14;;;;;;;9.30;5.35;;;;;;;;;;5050615;28;20206;-66
2021/11/27 11:37:42;;;;;;;7.50;5.03;;;;;;;;;;5051642;28;20761;-65
2021/11/27 11:40:12;;;;;;;7.65;5.63;;;;;;;;;;5051811;28;20201;-66
2021/11/27 11:42:41;;;;;;;7.30;5.05;;;;;;;;;;5050209;28;20195;-65
2021/11/27 11:45:09;;;;;;;6.95;5.43;;;2.90;84.50;;;;;;5051259;28;20191;-65
2021/11/27 11:47:36;;;;;;;7.28;5.28;;;8.30;81.70;;;;;;5050309;28;20197;-65
2021/11/27 11:50:08;;;;;;;7.85;5.90;;;8.90;79.00;;;;;;5051600;28;20233;-66
2021/11/27 11:53:02;;;;;;;8.57;5.50;;;9.30;76.60;;;;;;5051210;28;20252;-65
2021/11/27 11:55:31;;;;;;;6.82;5.05;;;10.00;75.10;;;;;;5047523;28;20568;-66
2021/11/27 11:58:01;;;;;;;8.60;5.88;;;10.50;73.40;;;;;;5051451;28;20195;-66
2021/11/27 12:00:31;;;;;;;6.60;5.63;;;10.50;69.10;;;;;;5051078;28;20209;-66
2021/11/27 12:03:12;;;;;;;5.20;4.15;;;;;;;;;;5046749;28;20195;-65
2021/11/27 12:06:03;;;;;;;7.00;4.93;;;10.30;67.20;;;;;;5051298;28;20600;-65
2021/11/27 12:09:16;;;;;;;8.75;5.50;;;9.80;67.90;;;;;;5050021;28;20194;-65
2021/11/27 12:12:20;;;;;;;5.63;4.25;;;9.50;67.40;;;;;;5047874;28;20748;-65
2021/11/27 12:15:08;;;;;;;6.65;4.10;;;9.20;66.70;;;;;;5049137;28;20237;-67
2021/11/27 12:18:11;;;;;;;6.97;3.88;;;8.90;67.30;;;;;;5046249;28;20214;-65
2021/11/27 12:20:47;;;;;;;4.90;3.10;;;8.70;67.10;;;;;;5050131;28;20233;-64
2021/11/27 12:23:45;;;;;;;11.10;5.45;;;8.50;67.30;;;;;;5051164;28;20275;-64
2021/11/27 12:26:24;;;;;;;3.72;2.45;;;8.30;65.80;;;;;;5047993;28;20195;-65
2021/11/27 12:29:13;;;;;;;4.35;2.47;;;8.10;67.00;;;;;;5050590;28;20642;-65
2021/11/27 12:31:47;;;;;;;2.92;1.75;;;8.00;67.70;;;;;;5050066;28;20189;-65
2021/11/27 12:34:34;;;;;;;3.08;1.80;;;7.90;67.50;;;;;;5050600;28;22396;-64
2021/11/27 12:37:22;;;;;;;3.75;1.60;;;7.80;66.60;;;;;;5046808;28;20273;-65
2021/11/27 12:39:53;;;;;;;2.22;1.42;;;7.60;66.60;;;;;;5050903;28;20715;-65
2021/11/27 12:42:35;;;;;;;2.60;1.45;;;7.50;66.30;;;;;;5050838;28;20642;-64
2021/11/27 12:45:08;;;;;;;3.50;2.38;;;;;;;;;;5046415;28;20690;-66
2021/11/27 12:47:40;;;;;;;3.30;2.28;;;;;;;;;;5050678;28;20198;-65
2021/11/27 12:50:16;;;;;;;4.82;2.70;;;;;;;;;;5050239;28;20198;-65
2021/11/27 12:52:50;;;;;;;4.95;3.40;;;7.40;65.40;;;;;;5050732;28;20580;-65
2021/11/27 12:55:35;;;;;;;4.20;2.75;;;7.10;66.50;;;;;;5050111;28;20254;-66
2021/11/27 12:58:35;;;;;;;4.97;3.33;;;;;;;;;;5050445;28;20194;-64
2021/11/27 13:01:07;;;;;;;3.97;2.58;;;;;;;;;;4987936;28;20311;-66
2021/11/27 13:03:35;;;;;;;2.75;1.70;;;;;;;;;;5039078;28;20653;-64
2021/11/27 13:06:03;;;;;;;2.60;1.50;;;;;;;;;;5049666;28;20249;-65
2021/11/27 13:08:33;;;;;;;4.65;2.28;;;;;;;;;;5050254;28;20187;-64
2021/11/27 13:11:09;;;;;;;6.68;2.30;;;;;;;;;;5047048;28;20195;-65
2021/11/27 13:13:37;;;;;;;3.00;1.85;;;;;;;;;;5050417;28;20191;-65
2021/11/27 13:16:10;;;;;;;2.80;2.30;;;;;;;;;;5050448;28;20226;-65
2021/11/27 13:18:46;;;;;;;3.58;2.10;;;;;;;;;;5050080;28;20237;-65
2021/11/27 13:21:14;;;;;;;3.15;1.85;;;;;;;;;;5050581;28;20256;-66
2021/11/27 13:23:44;;;;;;;5.25;1.80;;;;;;;;;;5050169;28;20715;-65
2021/11/27 13:26:12;;;;;;;2.78;1.73;;;;;;;;;;5050291;28;20203;-66
2021/11/27 13:28:40;;;;;;;3.00;1.80;;;;;;;;;;5050438;28;20273;-65
2021/11/27 13:31:23;;;;;;;4.05;1.85;;;;;;;;;;5050146;28;20195;-65
2021/11/27 13:33:53;;;;;;;3.20;1.25;;;;;;;;;;5049380;28;20195;-65
2021/11/27 13:36:27;;;;;;;2.70;1.55;;;;;;;;;;5046495;28;20313;-65
2021/11/27 13:38:58;;;;;;;2.63;1.55;;;;;;;;;;5048819;28;20249;-65
2021/11/27 13:41:26;;;;;;;6.93;1.77;;;;;;;;;;5050185;28;20324;-67
2021/11/27 13:43:53;;;;;;;2.55;1.70;;;;;;;;;;5050296;28;20194;-65
2021/11/27 13:46:23;;;;;;;2.97;1.50;;;;;;;;;;5050723;28;20286;-65
2021/11/27 13:48:53;;;;;;;5.80;3.78;;;;;;;;;;5053083;28;20187;-65
2021/11/27 13:51:23;;;;;;;6.18;3.95;;;;;;;;;;5054102;28;20500;-65
2021/11/27 13:53:52;;;;;;;8.88;4.03;;;;;;;;;;5054174;28;21857;-65
2021/11/27 13:56:21;;;;;;;3.50;1.80;;;;;;;;;;5053800;28;20317;-65
2021/11/27 13:58:55;;;;;;;2.35;1.40;;;;;;;;;;5053270;28;20234;-66
2021/11/27 14:01:27;;;;;;;2.53;1.30;;;;;;;;;;5054050;28;20650;-66
2021/11/27 14:03:57;;;;;;;2.67;1.30;;;;;;;;;;5052615;28;20206;-65
2021/11/27 14:06:25;;;;;;;3.55;1.75;;;;;;;;;;5053432;28;20233;-65
2021/11/27 14:09:03;;;;;;;3.20;2.08;;;;;;;;;;5053191;28;20191;-65
2021/11/27 14:11:34;;;;;;;42.00;21.85;;;;;;;;;;5049408;28;20198;-65
2021/11/27 14:14:03;;;;;;;35.00;20.40;;;;;;;;;;5051352;28;20222;-65
2021/11/27 14:16:40;;;;;;;29.67;15.57;;;;;;;;;;5053199;28;20226;-66
2021/11/27 14:19:12;;;;;;;18.75;10.70;;;;;;;;;;5050506;28;20202;-65
2021/11/27 14:21:40;;;;;;;15.40;9.23;;;;;;;;;;5053207;28;20275;-69
2021/11/27 14:24:15;;;;;;;10.75;5.25;;;;;;;;;;5052690;28;20191;-65
2021/11/27 14:26:49;;;;;;;4.90;2.80;;;;;;;;;;5052957;28;20191;-67
2021/11/27 14:29:18;;;;;;;4.90;1.70;;;;;;;;;;5052852;28;20199;-66
2021/11/27 14:31:47;;;;;;;2.85;1.73;;;;;;;;;;5053084;28;20733;-65
2021/11/27 14:34:19;;;;;;;4.97;2.30;;;;;;;;;;5052588;28;20194;-65
2021/11/27 14:36:51;;;;;;;3.28;2.03;;;;;;;;;;5052738;28;20199;-65
2021/11/27 14:39:22;;;;;;;3.15;1.63;;;;;;;;;;5052669;28;20281;-65
2021/11/27 14:41:51;;;;;;;2.85;1.60;;;;;;;;;;5052951;28;20279;-64
2021/11/27 14:44:28;;;;;;;2.63;1.50;;;;;;;;;;5052169;28;20187;-65
2021/11/27 14:47:06;;;;;;;4.15;2.03;;;;;;;;;;5053293;28;20244;-64